createdAt,value
2019-02-18T00:07:14.088Z,0.56
2019-02-18T00:12:50.761Z,0.53
2019-02-18T00:23:13.127Z,0.52
2019-02-18T00:34:00.566Z,0.36
2019-02-18T00:49:59.337Z,0.37
2019-02-18T01:06:10.518Z,0.15
2019-02-18T01:11:15.722Z,0.06
2019-02-18T01:16:32.632Z,0.15
2019-02-18T01:21:37.856Z,0.14
2019-02-18T01:26:43.081Z,0.18
2019-02-18T01:37:05.559Z,-0.02
2019-02-18T01:42:10.764Z,0.15
2019-02-18T01:47:15.960Z,-0.25
2019-02-18T01:58:02.995Z,-0.15
2019-02-18T02:03:08.241Z,-0.11
2019-02-18T02:19:27.963Z,-0.12
2019-02-18T02:24:33.467Z,-0.12
2019-02-18T02:29:58.002Z,-0.25
2019-02-18T02:35:03.190Z,-0.31
2019-02-18T02:40:39.786Z,-0.48
2019-02-18T02:46:04.093Z,-0.68
2019-02-18T02:56:45.124Z,-0.51
2019-02-18T03:01:50.352Z,-0.39
2019-02-18T03:06:57.496Z,-0.46
2019-02-18T03:12:14.816Z,-0.68
2019-02-18T03:22:35.913Z,-0.57
2019-02-18T03:27:53.330Z,-0.60
2019-02-18T03:32:58.839Z,-0.66
2019-02-18T03:38:04.033Z,-0.80
2019-02-18T03:48:45.657Z,-1.14
2019-02-18T03:53:50.868Z,-1.15
2019-02-18T03:58:56.134Z,-1.13
2019-02-18T04:04:20.516Z,-1.03
2019-02-18T04:14:42.937Z,-0.99
2019-02-18T04:19:48.303Z,-1.03
2019-02-18T04:24:53.560Z,-1.07
2019-02-18T04:29:59.047Z,-1.06
2019-02-18T04:35:04.599Z,-1.14
2019-02-18T04:40:10.070Z,-1.29
2019-02-18T04:45:15.326Z,-1.11
2019-02-18T04:50:20.708Z,-1.03
2019-02-18T04:55:26.085Z,-1.24
2019-02-18T05:00:31.605Z,-1.34
2019-02-18T05:05:36.944Z,-1.18
2019-02-18T05:10:42.284Z,-1.35
2019-02-18T05:15:48.297Z,-1.48
2019-02-18T05:20:53.832Z,-1.55
2019-02-18T05:25:59.090Z,-1.36
2019-02-18T05:31:04.380Z,-1.42
2019-02-18T05:36:09.657Z,-1.40
2019-02-18T05:41:15.020Z,-1.55
2019-02-18T05:46:20.405Z,-1.37
2019-02-18T05:51:25.649Z,-1.35
2019-02-18T05:56:37.051Z,-1.38
2019-02-18T06:01:54.259Z,-1.37
2019-02-18T06:06:59.559Z,-1.42
2019-02-18T06:12:04.789Z,-1.42
2019-02-18T06:17:10.017Z,-1.54
2019-02-18T06:22:15.206Z,-1.58
2019-02-18T06:27:20.438Z,-1.66
2019-02-18T06:32:36.995Z,-1.61
2019-02-18T06:42:59.134Z,-1.65
2019-02-18T06:48:15.098Z,-1.58
2019-02-18T06:53:20.565Z,-1.50
2019-02-18T06:59:03.996Z,-1.38
2019-02-18T07:04:28.263Z,-1.27
2019-02-18T07:10:04.071Z,-1.04
2019-02-18T07:20:26.223Z,-0.40
2019-02-18T07:25:50.487Z,-0.04
2019-02-18T07:31:07.758Z,0.05
2019-02-18T07:36:13.367Z,0.14
2019-02-18T07:41:37.956Z,0.42
2019-02-18T07:46:54.607Z,0.56
2019-02-18T07:51:59.822Z,0.64
2019-02-18T07:57:05.080Z,1.04
2019-02-18T08:08:18.167Z,1.53
2019-02-18T08:13:42.427Z,1.72
2019-02-18T08:18:47.690Z,2.14
2019-02-18T08:23:59.761Z,2.45
2019-02-18T08:29:09.239Z,2.78
2019-02-18T08:34:14.457Z,2.94
2019-02-18T08:39:38.856Z,3.25
2019-02-18T08:50:32.659Z,3.71
2019-02-18T08:55:57.091Z,4.08
2019-02-18T09:01:21.317Z,4.34
2019-02-18T09:06:45.831Z,4.52
2019-02-18T09:12:03.141Z,4.86
2019-02-18T09:17:08.509Z,5.06
2019-02-18T09:22:51.824Z,5.29
2019-02-18T09:28:08.318Z,5.66
2019-02-18T09:33:13.701Z,5.93
2019-02-18T09:55:22.257Z,7.14
2019-02-18T10:06:16.162Z,7.69
2019-02-18T10:11:21.360Z,7.96
2019-02-18T10:16:38.666Z,8.40
2019-02-18T10:21:43.884Z,8.62
2019-02-18T10:27:00.314Z,8.43
2019-02-18T10:32:05.592Z,8.83
2019-02-18T10:48:24.418Z,9.68
2019-02-18T10:53:48.685Z,10.15
2019-02-18T11:04:29.794Z,10.68
2019-02-18T11:09:46.161Z,10.95
2019-02-18T11:14:51.383Z,11.32
2019-02-18T11:20:15.733Z,11.68
2019-02-18T11:30:49.261Z,12.35
2019-02-18T11:35:54.540Z,12.80
2019-02-18T11:40:59.769Z,13.07
2019-02-18T11:51:22.234Z,13.91
2019-02-18T12:02:35.857Z,14.35
2019-02-18T12:13:10.553Z,14.82
2019-02-18T12:18:15.789Z,15.49
2019-02-18T12:24:00.899Z,15.54
2019-02-18T12:29:32.408Z,16.24
2019-02-18T12:34:49.239Z,16.63
2019-02-18T12:40:05.929Z,16.88
2019-02-18T12:45:22.882Z,17.53
2019-02-18T12:50:28.192Z,17.19
2019-02-18T12:55:40.653Z,17.62
2019-02-18T13:06:42.006Z,17.50
2019-02-18T13:12:19.827Z,17.16
2019-02-18T13:17:25.426Z,16.64
2019-02-18T13:22:30.678Z,16.40
2019-02-18T13:43:44.850Z,14.79
2019-02-18T13:48:55.532Z,14.89
2019-02-18T13:54:00.786Z,14.39
2019-02-18T13:59:17.070Z,14.05
2019-02-18T14:09:52.491Z,13.73
2019-02-18T14:20:47.817Z,13.40
2019-02-18T14:26:17.452Z,13.09
2019-02-18T14:31:22.742Z,12.97
2019-02-18T14:36:40.076Z,12.94
2019-02-18T14:47:22.695Z,13.06
2019-02-18T14:58:23.191Z,13.05
2019-02-18T15:09:51.207Z,13.12
2019-02-18T15:15:08.487Z,13.05
2019-02-18T15:20:13.734Z,13.02
2019-02-18T15:25:58.331Z,12.93
2019-02-18T15:31:22.614Z,12.85
2019-02-18T15:36:27.840Z,12.78
2019-02-18T15:52:26.749Z,12.59
2019-02-18T15:57:32.058Z,12.46
2019-02-18T16:02:37.330Z,12.35
2019-02-18T16:08:03.390Z,12.26
2019-02-18T16:18:38.885Z,12.13
2019-02-18T16:23:44.495Z,12.08
2019-02-18T16:28:49.681Z,11.99
2019-02-18T16:39:43.952Z,11.77
2019-02-18T16:45:00.809Z,11.59
2019-02-18T17:01:30.222Z,11.22
2019-02-18T17:06:47.047Z,11.08
2019-02-18T17:11:52.543Z,10.97
2019-02-18T17:16:57.882Z,10.85
2019-02-18T17:27:39.119Z,10.37
2019-02-18T17:33:10.289Z,9.98
2019-02-18T17:38:15.692Z,9.68
2019-02-18T17:43:32.684Z,9.35
2019-02-18T17:54:14.318Z,8.67
2019-02-18T17:59:38.614Z,8.30
2019-02-18T18:04:55.698Z,8.03
2019-02-18T18:26:31.858Z,7.42
2019-02-18T18:31:37.102Z,7.10
2019-02-18T18:36:54.691Z,6.95
2019-02-18T18:42:11.433Z,6.69
2019-02-18T18:47:28.792Z,6.51
2019-02-18T18:52:34.148Z,6.47
2019-02-18T18:57:46.489Z,6.27
2019-02-18T19:03:02.755Z,6.08
2019-02-18T19:08:27.912Z,5.79
2019-02-18T19:13:33.177Z,5.85
2019-02-18T19:18:38.455Z,5.76
2019-02-18T19:45:12.642Z,5.07
2019-02-18T19:50:28.760Z,5.15
2019-02-18T19:55:53.297Z,4.74
2019-02-18T20:00:58.485Z,4.71
2019-02-18T20:06:22.743Z,4.69
2019-02-18T20:11:28.010Z,4.56
2019-02-18T20:16:52.526Z,4.37
2019-02-18T20:21:58.070Z,4.37
2019-02-18T20:27:03.298Z,4.27
2019-02-18T20:32:19.985Z,3.92
2019-02-18T20:37:25.195Z,3.97
2019-02-18T20:42:30.733Z,3.83
2019-02-18T20:47:55.585Z,3.75
2019-02-18T20:53:13.161Z,3.80
2019-02-18T20:58:18.373Z,3.72
2019-02-18T21:03:23.609Z,3.57
2019-02-18T21:08:40.796Z,3.50
2019-02-18T21:13:46.376Z,3.46
2019-02-18T21:24:40.794Z,3.39
2019-02-18T21:29:46.340Z,3.22
2019-02-18T21:34:51.924Z,3.25
2019-02-18T21:40:16.440Z,3.20
2019-02-18T21:45:21.692Z,3.05
2019-02-18T21:50:27.013Z,2.98
2019-02-18T21:55:32.339Z,2.82
2019-02-18T22:01:01.894Z,2.92
2019-02-18T22:06:07.281Z,2.78
2019-02-18T22:22:05.864Z,2.92
2019-02-18T22:27:11.175Z,2.71
2019-02-18T22:32:16.986Z,2.66
2019-02-18T22:37:22.372Z,2.66
2019-02-18T22:42:34.951Z,2.52
2019-02-18T22:47:40.237Z,2.47
2019-02-18T22:52:45.830Z,2.35
2019-02-18T22:58:02.911Z,2.45
2019-02-18T23:08:44.251Z,2.45
2019-02-18T23:13:49.492Z,2.63
2019-02-18T23:24:30.941Z,2.75
2019-02-18T23:29:36.122Z,2.94
2019-02-18T23:40:11.577Z,2.79
2019-02-18T23:45:16.753Z,2.70
2019-02-18T23:55:38.462Z,2.63
